Time;durP1;ratioP1;P1;durP2;ratioP2;P2;SDS_P1;SDS_P2;PMS_P1;PMS_P2;Temp;Humidity;BMP_temperature;BMP_pressure;BME280_temperature;BME280_humidity;BME280_pressure;Samples;Min_cycle;Max_cycle;Signal;HPM_P1;HPM_P2
2021/10/11 00:00:07;;;;;;;33.37;21.33;;;8.60;99.90;;;;;;5104561;28;20228;-47
2021/10/11 00:02:38;;;;;;;31.90;21.73;;;8.60;99.90;;;;;;5094354;28;20217;-46
2021/10/11 00:05:05;;;;;;;30.03;21.10;;;8.70;99.90;;;;;;5090674;27;20212;-47
2021/10/11 00:07:32;;;;;;;32.83;21.73;;;8.80;99.90;;;;;;5095400;28;20242;-50
2021/10/11 00:09:59;;;;;;;33.23;23.13;;;8.90;99.90;;;;;;5099465;28;20216;-45
2021/10/11 00:12:26;;;;;;;32.73;21.97;;;8.90;99.90;;;;;;5101700;28;20861;-50
2021/10/11 00:14:53;;;;;;;32.73;22.93;;;9.00;99.90;;;;;;5104449;28;20197;-51
2021/10/11 00:17:21;;;;;;;33.87;21.77;;;9.00;99.90;;;;;;5098183;28;20200;-51
2021/10/11 00:19:50;;;;;;;35.60;23.60;;;9.00;99.90;;;;;;5091659;27;21757;-51
2021/10/11 00:22:17;;;;;;;34.77;22.93;;;9.10;99.90;;;;;;5101670;28;20201;-48
2021/10/11 00:24:44;;;;;;;35.20;23.97;;;9.10;99.90;;;;;;5101802;28;20200;-49
2021/10/11 00:27:11;;;;;;;36.13;21.50;;;9.10;99.90;;;;;;5104319;28;20197;-47
2021/10/11 00:29:38;;;;;;;34.30;24.27;;;9.10;99.90;;;;;;5099984;28;20216;-45
2021/10/11 00:32:07;;;;;;;36.93;24.53;;;9.20;99.90;;;;;;5097489;28;20201;-45
2021/10/11 00:34:35;;;;;;;32.30;23.83;;;9.20;99.90;;;;;;5102886;28;20216;-50
2021/10/11 00:37:02;;;;;;;35.03;24.30;;;9.20;99.90;;;;;;5092927;27;20208;-44
2021/10/11 00:39:29;;;;;;;39.70;25.13;;;9.30;99.90;;;;;;5101677;28;20220;-45
2021/10/11 00:41:56;;;;;;;37.13;24.57;;;9.30;99.90;;;;;;5101639;28;20678;-51
2021/10/11 00:44:22;;;;;;;38.50;26.40;;;9.30;99.90;;;;;;5103315;28;20228;-49
2021/10/11 00:46:49;;;;;;;41.87;26.67;;;9.30;99.90;;;;;;5101929;28;20190;-49
2021/10/11 00:49:16;;;;;;;40.83;26.57;;;9.40;99.90;;;;;;5104069;28;20212;-51
2021/10/11 00:51:44;;;;;;;43.20;26.87;;;9.40;99.90;;;;;;5085537;27;20209;-45
2021/10/11 00:54:11;;;;;;;41.90;26.80;;;9.40;99.90;;;;;;5094300;28;20205;-50
2021/10/11 00:56:38;;;;;;;46.13;27.13;;;9.50;99.90;;;;;;5105634;28;20207;-48
2021/10/11 00:59:04;;;;;;;44.83;28.17;;;9.50;99.90;;;;;;5095049;28;20690;-47
2021/10/11 01:01:31;;;;;;;44.87;27.67;;;9.50;99.90;;;;;;5101888;28;20198;-48
2021/10/11 01:03:58;;;;;;;39.40;27.20;;;9.50;99.90;;;;;;5093390;28;20247;-51
2021/10/11 01:06:25;;;;;;;45.27;29.33;;;9.50;99.90;;;;;;5095328;28;20205;-44
2021/10/11 01:08:54;;;;;;;42.03;28.00;;;9.50;99.90;;;;;;5085786;28;20560;-49
2021/10/11 01:11:20;;;;;;;45.57;30.47;;;9.50;99.90;;;;;;5097700;28;20446;-44
2021/10/11 01:13:47;;;;;;;43.20;27.70;;;9.50;99.90;;;;;;5103372;28;20220;-45
2021/10/11 01:16:13;;;;;;;46.20;29.53;;;9.60;99.90;;;;;;5099961;28;20200;-44
2021/10/11 01:18:40;;;;;;;45.77;28.87;;;9.60;99.90;;;;;;5103284;28;20241;-46
2021/10/11 01:21:08;;;;;;;47.57;31.07;;;9.60;99.90;;;;;;5092177;28;20200;-49
2021/10/11 01:23:34;;;;;;;48.80;29.47;;;9.60;99.90;;;;;;5090202;28;20217;-48
2021/10/11 01:26:01;;;;;;;46.77;30.10;;;9.60;99.90;;;;;;5103983;28;20197;-48
2021/10/11 01:28:28;;;;;;;49.77;31.53;;;9.60;99.90;;;;;;5099475;28;20205;-45
2021/10/11 01:30:55;;;;;;;47.13;30.20;;;9.60;99.90;;;;;;5102778;28;20200;-52
2021/10/11 01:33:22;;;;;;;48.13;30.83;;;9.60;99.90;;;;;;5096819;28;20221;-49
2021/10/11 01:35:48;;;;;;;50.77;32.33;;;9.60;99.90;;;;;;5100697;28;20541;-48
2021/10/11 01:38:17;;;;;;;47.20;29.93;;;9.60;99.90;;;;;;5090496;28;20201;-52
2021/10/11 01:40:43;;;;;;;51.10;30.80;;;9.60;99.90;;;;;;5095309;27;20574;-50
2021/10/11 01:43:10;;;;;;;51.10;31.03;;;9.60;99.90;;;;;;5101416;28;20709;-48
2021/10/11 01:45:38;;;;;;;45.37;29.83;;;9.60;99.90;;;;;;5101224;28;20204;-50
2021/10/11 01:48:05;;;;;;;48.50;30.73;;;9.70;99.90;;;;;;5097611;28;20561;-50
2021/10/11 01:50:33;;;;;;;48.67;30.60;;;9.70;99.90;;;;;;5100937;28;20182;-47
2021/10/11 01:53:00;;;;;;;46.80;29.67;;;9.70;99.90;;;;;;5102891;27;20221;-46
2021/10/11 01:55:28;;;;;;;50.10;30.87;;;9.70;99.90;;;;;;5083320;28;20210;-45
2021/10/11 01:57:54;;;;;;;48.83;31.07;;;9.70;99.90;;;;;;5103269;28;20208;-45
2021/10/11 02:00:21;;;;;;;45.10;29.20;;;9.70;99.90;;;;;;5094646;28;20205;-49
2021/10/11 02:02:47;;;;;;;49.73;32.23;;;9.70;99.90;;;;;;5107066;28;20232;-47
2021/10/11 02:05:14;;;;;;;50.83;31.53;;;9.70;99.90;;;;;;5107586;27;20209;-48
2021/10/11 02:07:41;;;;;;;54.30;31.40;;;9.80;99.90;;;;;;5108274;28;20216;-48
2021/10/11 02:10:09;;;;;;;52.77;32.03;;;9.80;99.90;;;;;;5100802;28;20189;-51
2021/10/11 02:12:37;;;;;;;51.67;31.33;;;9.80;99.90;;;;;;5097469;27;20204;-49
2021/10/11 02:15:04;;;;;;;49.83;31.57;;;9.80;99.90;;;;;;5105648;28;20209;-52
2021/10/11 02:17:31;;;;;;;56.27;32.97;;;9.80;99.90;;;;;;5103448;28;20547;-47
2021/10/11 02:19:58;;;;;;;49.30;32.70;;;9.80;99.90;;;;;;5106828;28;20221;-47
2021/10/11 02:22:25;;;;;;;49.87;31.77;;;9.80;99.90;;;;;;5094690;28;20205;-50
2021/10/11 02:24:52;;;;;;;47.77;30.53;;;9.80;99.90;;;;;;5106834;28;20236;-47
2021/10/11 02:27:19;;;;;;;49.70;30.37;;;9.80;99.90;;;;;;5089723;27;20212;-52
2021/10/11 02:29:47;;;;;;;49.90;31.27;;;9.80;99.90;;;;;;5101809;28;20193;-46
2021/10/11 02:32:15;;;;;;;47.23;32.13;;;9.80;99.90;;;;;;5103312;28;20228;-51
2021/10/11 02:34:42;;;;;;;51.60;31.83;;;9.80;99.90;;;;;;5100536;28;20611;-48
2021/10/11 02:37:09;;;;;;;45.17;28.63;;;9.80;99.90;;;;;;5104662;28;20212;-50
2021/10/11 02:39:36;;;;;;;50.53;31.77;;;9.80;99.90;;;;;;5104116;28;20220;-46
2021/10/11 02:42:02;;;;;;;55.00;32.20;;;9.80;99.90;;;;;;5089865;27;20209;-48
2021/10/11 02:44:29;;;;;;;53.90;32.57;;;9.80;99.90;;;;;;5106774;28;20220;-49
2021/10/11 02:46:57;;;;;;;54.20;33.57;;;9.80;99.90;;;;;;5107738;28;20654;-49
2021/10/11 02:49:24;;;;;;;48.97;32.07;;;9.80;99.90;;;;;;5097013;27;20186;-46
2021/10/11 02:51:50;;;;;;;53.97;31.57;;;9.80;99.90;;;;;;5106099;27;20193;-45
2021/10/11 02:54:17;;;;;;;46.63;30.13;;;9.80;99.90;;;;;;5098985;27;20221;-51
2021/10/11 02:56:44;;;;;;;50.47;31.37;;;9.80;99.90;;;;;;5104479;28;20197;-45
2021/10/11 02:59:11;;;;;;;48.10;31.53;;;9.80;99.90;;;;;;5090618;27;20621;-48
2021/10/11 03:01:38;;;;;;;48.80;31.50;;;9.70;99.90;;;;;;5101204;27;20209;-45
2021/10/11 03:04:06;;;;;;;48.53;31.37;;;9.70;99.90;;;;;;5109395;28;20225;-48
2021/10/11 03:06:32;;;;;;;52.17;33.43;;;9.70;99.90;;;;;;5107175;28;20204;-48
2021/10/11 03:08:59;;;;;;;53.07;33.10;;;9.70;99.90;;;;;;5110414;28;20202;-48
2021/10/11 03:11:26;;;;;;;50.37;31.57;;;9.70;99.90;;;;;;5106355;28;20189;-49
2021/10/11 03:13:52;;;;;;;48.70;31.97;;;9.70;99.90;;;;;;5092327;27;20213;-48
2021/10/11 03:16:19;;;;;;;55.97;34.03;;;9.70;99.90;;;;;;5104902;28;20204;-49
2021/10/11 03:18:47;;;;;;;53.40;33.23;;;9.80;99.90;;;;;;5100263;28;20198;-46
2021/10/11 03:21:17;;;;;;;51.27;33.27;;;9.80;99.90;;;;;;5105633;27;20221;-46
2021/10/11 03:23:44;;;;;;;50.87;32.40;;;9.80;99.90;;;;;;5104673;28;20237;-46
2021/10/11 03:26:11;;;;;;;53.13;33.23;;;9.80;99.90;;;;;;5101358;28;20650;-48
2021/10/11 03:28:37;;;;;;;58.10;34.13;;;9.80;99.90;;;;;;5100913;28;20213;-49
2021/10/11 03:31:05;;;;;;;61.93;35.23;;;9.80;99.90;;;;;;5092744;27;20205;-51
2021/10/11 03:33:32;;;;;;;61.17;34.60;;;9.80;99.90;;;;;;5102209;28;20217;-46
2021/10/11 03:35:58;;;;;;;56.67;33.27;;;9.80;99.90;;;;;;5105051;28;20568;-48
2021/10/11 03:38:27;;;;;;;59.83;33.13;;;9.80;99.90;;;;;;5098582;28;20200;-47
2021/10/11 03:40:53;;;;;;;58.43;34.63;;;9.90;99.90;;;;;;5101669;27;20565;-46
2021/10/11 03:43:20;;;;;;;58.70;34.20;;;9.90;99.90;;;;;;5100173;28;20593;-48
2021/10/11 03:45:46;;;;;;;62.20;35.20;;;9.90;99.90;;;;;;5095556;27;20205;-47
2021/10/11 03:48:13;;;;;;;65.43;35.73;;;9.90;99.90;;;;;;5104211;27;20189;-51
2021/10/11 03:50:40;;;;;;;62.67;35.73;;;9.80;99.90;;;;;;5102939;28;20200;-50
2021/10/11 03:53:06;;;;;;;66.60;36.00;;;9.80;99.90;;;;;;5102950;28;20224;-51
2021/10/11 03:55:34;;;;;;;58.87;33.10;;;9.90;99.90;;;;;;5101869;28;20203;-48
2021/10/11 03:58:01;;;;;;;57.87;34.30;;;9.90;99.90;;;;;;5104508;28;20193;-46
2021/10/11 04:00:27;;;;;;;52.60;31.67;;;9.90;99.90;;;;;;5095603;28;20217;-48
2021/10/11 04:02:56;;;;;;;60.20;34.77;;;9.90;99.90;;;;;;5090888;27;20216;-48
2021/10/11 04:05:23;;;;;;;58.13;33.20;;;9.90;99.90;;;;;;5094516;27;20196;-47
2021/10/11 04:07:53;;;;;;;58.20;32.33;;;9.90;99.90;;;;;;5099451;28;20209;-46
2021/10/11 04:10:26;;;;;;;56.23;33.57;;;9.90;99.90;;;;;;5100196;28;20193;-45
2021/10/11 04:13:00;;;;;;;54.57;32.87;;;9.90;99.90;;;;;;5097262;28;20685;-53
2021/10/11 04:15:26;;;;;;;51.20;30.67;;;10.00;99.90;;;;;;5104236;28;20274;-46
2021/10/11 04:17:54;;;;;;;48.33;30.23;;;9.90;99.90;;;;;;5088835;27;20205;-50
2021/10/11 04:20:21;;;;;;;48.33;30.90;;;9.90;99.90;;;;;;5098291;28;20213;-49
2021/10/11 04:22:47;;;;;;;52.33;31.73;;;9.90;99.90;;;;;;5101515;28;20236;-46
2021/10/11 04:25:14;;;;;;;56.60;31.77;;;9.90;99.90;;;;;;5106163;28;20197;-48
2021/10/11 04:27:41;;;;;;;49.07;30.87;;;10.00;99.90;;;;;;5105877;28;20557;-46
2021/10/11 04:30:10;;;;;;;53.10;31.03;;;10.00;99.90;;;;;;5095130;28;20193;-46
2021/10/11 04:32:37;;;;;;;49.27;29.03;;;10.00;99.90;;;;;;5092197;27;20208;-47
2021/10/11 04:35:03;;;;;;;47.93;29.23;;;10.00;99.90;;;;;;5097126;28;20241;-46
2021/10/11 04:37:30;;;;;;;49.73;30.67;;;10.00;99.90;;;;;;5103418;28;20205;-47
2021/10/11 04:39:57;;;;;;;52.03;29.00;;;10.10;99.90;;;;;;5100298;28;20220;-49
2021/10/11 04:42:23;;;;;;;49.30;29.97;;;10.10;99.90;;;;;;5106805;28;20204;-47
2021/10/11 04:44:50;;;;;;;48.27;29.90;;;10.10;99.90;;;;;;5105020;28;20298;-52
2021/10/11 04:47:18;;;;;;;53.30;29.73;;;10.10;99.90;;;;;;5095203;28;20193;-46
2021/10/11 04:49:44;;;;;;;46.30;28.43;;;10.20;99.90;;;;;;5092010;28;20208;-47
2021/10/11 04:52:11;;;;;;;43.93;28.93;;;10.20;99.90;;;;;;5089804;28;20205;-48
2021/10/11 04:54:38;;;;;;;47.43;29.57;;;10.20;99.90;;;;;;5100313;28;20220;-46
2021/10/11 04:57:04;;;;;;;56.07;27.80;;;10.20;99.90;;;;;;5093190;28;20200;-46
2021/10/11 04:59:31;;;;;;;43.43;27.67;;;10.20;99.90;;;;;;5103122;28;20201;-46
2021/10/11 05:01:57;;;;;;;49.27;28.67;;;10.20;99.90;;;;;;5097296;28;20209;-46
2021/10/11 05:04:25;;;;;;;48.27;27.53;;;10.20;99.90;;;;;;5080342;28;20229;-48
2021/10/11 05:06:52;;;;;;;40.63;26.67;;;10.20;99.90;;;;;;5099677;28;20201;-51
2021/10/11 05:09:18;;;;;;;43.17;25.80;;;10.20;99.90;;;;;;5091834;28;20201;-48
2021/10/11 05:11:45;;;;;;;43.20;25.30;;;10.20;99.90;;;;;;5093227;28;20548;-49
2021/10/11 05:14:11;;;;;;;47.53;26.63;;;10.30;99.90;;;;;;5101188;28;20338;-49
2021/10/11 05:16:38;;;;;;;42.30;26.40;;;10.30;99.90;;;;;;5106371;28;20193;-47
2021/10/11 05:19:05;;;;;;;41.50;24.53;;;10.30;99.90;;;;;;5090442;28;20315;-49
2021/10/11 05:21:33;;;;;;;40.10;23.50;;;10.30;99.90;;;;;;5109720;27;20221;-47
2021/10/11 05:24:00;;;;;;;41.20;25.10;;;10.30;99.90;;;;;;5097494;28;20554;-46
2021/10/11 05:26:27;;;;;;;38.33;24.13;;;10.20;99.90;;;;;;5104943;28;20677;-48
2021/10/11 05:28:54;;;;;;;39.90;23.40;;;10.20;99.90;;;;;;5099389;27;20204;-48
2021/10/11 05:31:20;;;;;;;39.57;23.93;;;10.20;99.90;;;;;;5101535;28;20277;-45
2021/10/11 05:33:47;;;;;;;39.27;23.27;;;10.20;99.90;;;;;;5099329;28;20563;-54
2021/10/11 05:36:14;;;;;;;37.97;24.03;;;10.20;99.90;;;;;;5093290;28;20726;-46
2021/10/11 05:38:42;;;;;;;35.60;22.50;;;10.20;99.90;;;;;;5104784;28;20201;-45
2021/10/11 05:41:08;;;;;;;37.83;21.80;;;10.20;99.90;;;;;;5097859;27;20220;-46
2021/10/11 05:43:35;;;;;;;34.30;20.63;;;10.10;99.90;;;;;;5105282;28;20236;-46
2021/10/11 05:46:02;;;;;;;34.90;21.07;;;10.10;99.90;;;;;;5105057;28;20720;-46
2021/10/11 05:48:28;;;;;;;35.43;19.97;;;10.00;99.90;;;;;;5105845;28;20193;-50
2021/10/11 05:50:55;;;;;;;37.47;21.33;;;10.00;99.90;;;;;;5089558;27;20193;-51
2021/10/11 05:53:21;;;;;;;33.23;20.90;;;10.10;99.90;;;;;;5093853;28;20220;-52
2021/10/11 05:55:49;;;;;;;40.00;20.90;;;10.00;99.90;;;;;;5100990;28;20205;-48
2021/10/11 05:58:16;;;;;;;33.73;21.47;;;9.90;99.90;;;;;;5098263;28;20209;-54
2021/10/11 06:00:42;;;;;;;32.57;20.13;;;9.80;99.90;;;;;;5101014;28;20221;-47
2021/10/11 06:03:10;;;;;;;34.90;19.80;;;9.80;99.90;;;;;;5103101;27;20588;-51
2021/10/11 06:05:36;;;;;;;29.93;19.03;;;9.70;99.90;;;;;;5087846;27;20447;-49
2021/10/11 06:08:03;;;;;;;32.93;20.53;;;9.70;99.90;;;;;;5112733;27;20204;-51
2021/10/11 06:10:30;;;;;;;31.60;18.67;;;9.60;99.90;;;;;;5100476;28;20877;-51
2021/10/11 06:12:57;;;;;;;25.73;18.13;;;9.60;99.90;;;;;;5106391;27;20213;-48
2021/10/11 06:15:24;;;;;;;31.93;18.80;;;9.60;99.90;;;;;;5092275;28;20217;-50
2021/10/11 06:17:51;;;;;;;33.03;18.67;;;9.60;99.90;;;;;;5104084;28;20216;-48
2021/10/11 06:20:17;;;;;;;31.60;18.60;;;9.60;99.90;;;;;;5100031;28;20698;-45
2021/10/11 06:22:44;;;;;;;34.20;18.27;;;9.70;99.90;;;;;;5093382;27;20241;-51
2021/10/11 06:25:11;;;;;;;36.40;19.27;;;9.70;99.90;;;;;;5100362;27;20190;-46
2021/10/11 06:27:38;;;;;;;30.63;18.17;;;9.70;99.90;;;;;;5107386;28;20201;-49
2021/10/11 06:30:08;;;;;;;37.23;19.10;;;9.70;99.90;;;;;;5098829;28;20240;-50
2021/10/11 06:32:35;;;;;;;35.30;18.43;;;9.70;99.90;;;;;;5097740;28;20198;-51
2021/10/11 06:35:01;;;;;;;32.00;18.27;;;9.80;99.90;;;;;;5095532;27;20193;-50
2021/10/11 06:37:28;;;;;;;32.33;18.20;;;9.80;99.90;;;;;;5083223;27;20213;-48
2021/10/11 06:39:55;;;;;;;32.93;19.03;;;9.80;99.90;;;;;;5096836;28;20193;-51
2021/10/11 06:42:21;;;;;;;38.13;19.50;;;9.90;99.90;;;;;;5081227;27;20651;-51
2021/10/11 06:44:48;;;;;;;36.73;19.57;;;9.90;99.90;;;;;;5094549;28;20902;-49
2021/10/11 06:47:16;;;;;;;28.07;17.83;;;9.90;99.90;;;;;;5097339;28;20237;-51
2021/10/11 06:49:45;;;;;;;32.10;17.03;;;9.90;99.90;;;;;;5094229;28;20864;-49
2021/10/11 06:52:12;;;;;;;32.50;18.97;;;9.90;99.90;;;;;;5098355;28;20186;-46
2021/10/11 06:54:39;;;;;;;34.93;18.73;;;10.00;99.90;;;;;;5087464;27;20236;-52
2021/10/11 06:57:06;;;;;;;49.83;19.80;;;10.00;99.90;;;;;;5093129;28;20204;-47
2021/10/11 06:59:32;;;;;;;45.50;18.73;;;10.00;99.90;;;;;;5103904;28;20204;-51
2021/10/11 07:01:59;;;;;;;57.60;19.80;;;10.10;99.90;;;;;;5094573;28;20232;-45
2021/10/11 07:04:27;;;;;;;63.23;20.17;;;10.10;99.90;;;;;;5101686;27;20217;-46
2021/10/11 07:06:56;;;;;;;34.13;18.87;;;10.10;99.90;;;;;;5094063;28;20205;-50
2021/10/11 07:09:23;;;;;;;62.03;19.83;;;10.20;99.90;;;;;;5077174;27;20202;-51
2021/10/11 07:11:50;;;;;;;40.70;19.53;;;10.20;99.90;;;;;;5085178;27;20198;-47
2021/10/11 07:14:17;;;;;;;52.07;19.10;;;10.20;99.90;;;;;;5103697;28;20288;-52
2021/10/11 07:16:45;;;;;;;42.70;18.13;;;10.20;99.90;;;;;;5092769;27;20715;-48
2021/10/11 07:19:12;;;;;;;45.67;18.67;;;10.20;99.90;;;;;;5105848;28;20246;-49
2021/10/11 07:21:40;;;;;;;44.30;17.90;;;10.30;99.90;;;;;;5104409;28;20224;-52
2021/10/11 07:24:07;;;;;;;31.30;17.90;;;10.30;99.90;;;;;;5096513;27;20614;-49
2021/10/11 07:26:33;;;;;;;34.63;17.47;;;10.30;99.90;;;;;;5087718;27;20202;-49
2021/10/11 07:29:00;;;;;;;32.53;18.40;;;10.40;99.90;;;;;;5101029;28;20197;-49
2021/10/11 07:31:27;;;;;;;33.37;17.90;;;10.50;99.90;;;;;;5093680;28;20205;-52
2021/10/11 07:33:53;;;;;;;27.23;16.97;;;10.50;99.90;;;;;;5092436;28;20717;-45
2021/10/11 07:36:20;;;;;;;30.13;16.93;;;10.50;99.90;;;;;;5094852;28;20848;-52
2021/10/11 07:38:48;;;;;;;31.07;17.03;;;10.60;99.90;;;;;;5099884;28;20197;-50
2021/10/11 07:41:15;;;;;;;28.23;16.60;;;10.80;99.90;;;;;;5085703;27;20220;-48
2021/10/11 07:43:41;;;;;;;25.63;14.70;;;10.80;99.90;;;;;;5097824;28;20929;-48
2021/10/11 07:46:08;;;;;;;28.00;16.03;;;10.90;99.90;;;;;;5095817;28;20217;-49
2021/10/11 07:48:35;;;;;;;24.43;15.60;;;10.90;99.90;;;;;;5091814;28;20201;-50
2021/10/11 07:51:01;;;;;;;21.50;14.27;;;11.00;99.90;;;;;;5089108;28;20200;-48
2021/10/11 07:53:28;;;;;;;27.13;14.87;;;11.10;99.90;;;;;;5090443;28;20210;-49
2021/10/11 07:55:57;;;;;;;28.73;15.50;;;11.10;99.90;;;;;;5099666;28;20209;-45
2021/10/11 07:58:24;;;;;;;23.13;14.17;;;11.20;99.90;;;;;;5077943;27;20192;-45
2021/10/11 08:00:50;;;;;;;25.07;14.30;;;11.30;99.90;;;;;;5098241;28;20205;-50
2021/10/11 08:03:17;;;;;;;24.37;13.50;;;11.40;99.90;;;;;;5088645;28;20221;-52
2021/10/11 08:05:44;;;;;;;18.80;11.73;;;11.50;99.90;;;;;;5095401;28;20275;-49
2021/10/11 08:08:11;;;;;;;17.77;10.70;;;11.60;99.90;;;;;;5098802;28;20205;-48
2021/10/11 08:10:37;;;;;;;13.27;9.13;;;11.70;99.90;;;;;;5099314;27;20199;-47
2021/10/11 08:13:05;;;;;;;17.73;10.00;;;11.80;99.90;;;;;;5081055;27;20254;-48
2021/10/11 08:15:32;;;;;;;19.60;9.27;;;11.90;99.90;;;;;;5102020;28;20188;-51
2021/10/11 08:17:59;;;;;;;13.80;8.33;;;12.00;99.90;;;;;;5106998;28;20197;-48
2021/10/11 08:20:25;;;;;;;12.23;7.17;;;12.10;99.90;;;;;;5092106;28;20870;-51
2021/10/11 08:22:52;;;;;;;12.47;7.23;;;12.20;99.90;;;;;;5105469;28;20290;-49
2021/10/11 08:25:19;;;;;;;12.57;6.10;;;12.30;99.90;;;;;;5100412;28;20196;-45
2021/10/11 08:27:46;;;;;;;15.23;6.27;;;12.30;99.90;;;;;;5092634;27;20229;-49
2021/10/11 08:30:14;;;;;;;10.57;5.87;;;12.40;99.90;;;;;;5096232;28;20197;-52
2021/10/11 08:32:41;;;;;;;10.87;5.83;;;12.50;99.90;;;;;;5093656;28;20620;-48
2021/10/11 08:35:08;;;;;;;11.30;5.43;;;12.60;99.90;;;;;;5094558;28;20198;-47
2021/10/11 08:37:35;;;;;;;6.83;4.63;;;12.70;99.90;;;;;;5094916;28;20189;-48
2021/10/11 08:40:01;;;;;;;9.53;4.57;;;12.80;99.90;;;;;;5103216;28;20692;-49
2021/10/11 08:42:28;;;;;;;11.90;5.27;;;12.90;99.90;;;;;;5081961;27;20221;-49
2021/10/11 08:44:55;;;;;;;12.33;4.53;;;13.00;99.90;;;;;;5100362;28;20218;-51
2021/10/11 08:47:23;;;;;;;10.93;4.27;;;13.00;99.90;;;;;;5095878;28;20201;-44
2021/10/11 08:49:51;;;;;;;12.03;4.70;;;13.10;99.90;;;;;;5094411;28;20190;-47
2021/10/11 08:52:22;;;;;;;8.03;3.80;;;13.10;99.90;;;;;;5098974;28;20230;-49
2021/10/11 08:54:49;;;;;;;8.07;3.80;;;13.20;99.90;;;;;;5100074;28;20572;-48
2021/10/11 08:57:23;;;;;;;12.13;3.53;;;13.20;99.90;;;;;;5097799;28;20212;-52
2021/10/11 08:59:50;;;;;;;11.63;3.53;;;13.30;99.90;;;;;;5088928;28;20669;-49
2021/10/11 09:02:20;;;;;;;4.80;3.20;;;13.40;99.90;;;;;;5092056;28;20216;-49
2021/10/11 09:04:50;;;;;;;9.77;3.40;;;13.60;99.90;;;;;;5090286;28;20200;-45
2021/10/11 09:07:17;;;;;;;7.80;2.73;;;13.70;99.90;;;;;;5092379;28;20201;-52
2021/10/11 09:09:47;;;;;;;7.27;2.90;;;13.80;99.90;;;;;;5092611;28;20555;-52
2021/10/11 09:12:18;;;;;;;9.93;3.27;;;13.90;99.90;;;;;;5082297;28;20190;-47
2021/10/11 09:14:46;;;;;;;10.13;3.77;;;13.90;99.90;;;;;;5095991;27;20280;-51
2021/10/11 09:17:22;;;;;;;10.50;4.23;;;13.90;99.90;;;;;;5087157;28;20225;-49
2021/10/11 09:19:58;;;;;;;5.00;2.40;;;14.00;99.90;;;;;;5097086;28;20285;-49
2021/10/11 09:22:35;;;;;;;6.23;2.93;;;14.00;99.90;;;;;;5101931;28;20216;-47
2021/10/11 09:25:04;;;;;;;7.67;3.10;;;13.90;99.90;;;;;;5094627;28;20204;-45
2021/10/11 09:27:41;;;;;;;8.03;2.90;;;14.00;99.90;;;;;;5102418;28;20208;-45
2021/10/11 09:30:09;;;;;;;6.73;2.47;;;14.00;99.90;;;;;;5092179;27;20241;-47
2021/10/11 09:32:35;;;;;;;6.07;2.37;;;14.10;99.90;;;;;;5099330;27;20226;-52
2021/10/11 09:35:14;;;;;;;6.83;2.47;;;14.30;99.90;;;;;;5091011;28;20811;-47
2021/10/11 09:37:41;;;;;;;7.10;2.53;;;14.30;99.90;;;;;;5100176;28;20285;-47
2021/10/11 09:40:09;;;;;;;6.50;2.53;;;14.20;99.90;;;;;;5100526;27;20197;-53
2021/10/11 09:42:36;;;;;;;7.77;2.37;;;14.20;99.90;;;;;;5098953;27;20225;-49
2021/10/11 09:45:06;;;;;;;9.47;2.90;;;14.30;99.90;;;;;;5107922;28;20208;-49
2021/10/11 09:47:35;;;;;;;7.13;2.20;;;14.30;99.90;;;;;;5085811;27;20942;-49
2021/10/11 09:50:05;;;;;;;7.13;2.20;;;14.40;99.90;;;;;;5102337;28;20185;-47
2021/10/11 09:52:33;;;;;;;8.83;1.93;;;14.40;99.90;;;;;;5092443;27;20251;-50
2021/10/11 09:55:00;;;;;;;4.93;1.90;;;14.40;99.90;;;;;;5100073;28;20209;-47
2021/10/11 09:57:27;;;;;;;4.63;1.90;;;14.50;99.90;;;;;;5088653;28;20201;-51
2021/10/11 09:59:54;;;;;;;6.50;1.97;;;14.50;99.90;;;;;;5099572;28;20198;-45
2021/10/11 10:02:26;;;;;;;4.27;1.00;;;14.60;99.90;;;;;;5094774;27;20224;-52
2021/10/11 10:04:56;;;;;;;2.90;1.23;;;14.60;99.90;;;;;;5102217;28;20198;-52
2021/10/11 10:07:24;;;;;;;6.13;1.30;;;14.60;99.90;;;;;;5101700;28;20200;-47
2021/10/11 10:09:55;;;;;;;6.97;1.53;;;14.50;99.90;;;;;;5102023;28;20204;-48
2021/10/11 10:12:22;;;;;;;8.67;1.60;;;14.60;99.90;;;;;;5091957;28;20200;-46
2021/10/11 10:14:58;;;;;;;5.23;1.60;;;14.60;99.90;;;;;;5104982;28;20213;-49
2021/10/11 10:17:29;;;;;;;6.07;1.33;;;14.60;99.90;;;;;;5094085;27;20211;-48
2021/10/11 10:20:05;;;;;;;4.97;0.97;;;14.60;99.90;;;;;;5107920;28;20249;-54
2021/10/11 10:22:32;;;;;;;6.37;1.00;;;14.70;99.90;;;;;;5103832;28;20201;-47
2021/10/11 10:25:06;;;;;;;5.70;0.93;;;14.80;99.90;;;;;;5096175;27;20588;-52
2021/10/11 10:27:36;;;;;;;6.73;1.03;;;15.00;99.90;;;;;;5093858;28;20207;-47
2021/10/11 10:30:17;;;;;;;6.43;1.17;;;15.00;99.90;;;;;;5100952;28;20209;-52
2021/10/11 10:32:55;;;;;;;6.83;1.20;;;;;;;;;;5101518;28;20216;-46
2021/10/11 10:35:21;;;;;;;6.63;1.30;;;15.30;99.90;;;;;;5087440;27;20204;-46
2021/10/11 10:37:48;;;;;;;6.33;1.67;;;15.30;99.90;;;;;;5091593;28;20999;-53
2021/10/11 10:40:19;;;;;;;6.20;1.03;;;15.40;99.90;;;;;;5099151;28;20201;-47
2021/10/11 10:42:47;;;;;;;5.87;1.23;;;15.40;99.90;;;;;;5097804;28;20249;-46
2021/10/11 10:45:20;;;;;;;3.43;1.00;;;15.40;99.90;;;;;;5105483;28;20198;-45
2021/10/11 10:47:48;;;;;;;3.43;0.87;;;15.50;99.90;;;;;;5100799;28;20201;-50
2021/10/11 10:50:17;;;;;;;4.17;1.40;;;15.60;99.90;;;;;;5089907;27;20574;-46
2021/10/11 10:52:47;;;;;;;6.17;1.53;;;15.50;99.90;;;;;;5096364;28;20236;-54
2021/10/11 10:55:14;;;;;;;5.20;1.17;;;15.40;99.90;;;;;;5096515;28;20262;-47
2021/10/11 10:57:43;;;;;;;7.30;1.00;;;15.30;99.90;;;;;;5097484;28;20201;-48
2021/10/11 11:00:17;;;;;;;5.50;0.90;;;15.10;99.90;;;;;;5099562;28;20218;-49
2021/10/11 11:02:46;;;;;;;9.50;1.20;;;15.10;99.90;;;;;;5095891;28;20285;-46
2021/10/11 11:05:14;;;;;;;3.73;1.00;;;15.20;99.90;;;;;;5087841;27;20280;-49
2021/10/11 11:07:42;;;;;;;4.17;0.60;;;15.30;99.90;;;;;;5088603;28;20213;-47
2021/10/11 11:10:15;;;;;;;3.20;0.90;;;15.50;99.90;;;;;;5088716;28;20212;-45
2021/10/11 11:12:45;;;;;;;3.30;0.63;;;15.60;99.90;;;;;;5094344;28;20232;-44
2021/10/11 11:15:23;;;;;;;3.93;1.00;;;15.70;99.90;;;;;;5098029;27;20212;-47
2021/10/11 11:17:50;;;;;;;5.37;1.10;;;15.80;99.90;;;;;;5101855;28;20201;-47
2021/10/11 11:20:20;;;;;;;5.90;1.43;;;15.80;99.90;;;;;;5093045;27;20211;-47
2021/10/11 11:22:47;;;;;;;4.03;1.23;;;15.80;99.90;;;;;;5098467;28;20234;-55
2021/10/11 11:25:14;;;;;;;2.33;0.90;;;15.70;99.90;;;;;;5096905;28;20654;-49
2021/10/11 11:27:44;;;;;;;4.47;0.80;;;15.50;99.90;;;;;;5093662;28;20205;-50
2021/10/11 11:30:14;;;;;;;5.40;1.47;;;15.40;99.90;;;;;;5091136;28;20284;-47
2021/10/11 11:32:48;;;;;;;4.93;0.83;;;15.20;99.90;;;;;;5091688;28;20210;-52
2021/10/11 11:35:23;;;;;;;2.97;0.60;;;15.20;99.90;;;;;;5093866;28;20189;-51
2021/10/11 11:37:51;;;;;;;3.17;0.87;;;15.20;99.90;;;;;;5088369;27;20833;-48
2021/10/11 11:40:20;;;;;;;3.10;1.00;;;15.20;99.90;;;;;;5097964;28;20201;-51
2021/10/11 11:42:49;;;;;;;6.33;1.20;;;15.20;99.90;;;;;;5096583;28;20220;-46
2021/10/11 11:45:16;;;;;;;3.20;0.77;;;15.30;99.90;;;;;;5093728;28;20208;-50
2021/10/11 11:47:42;;;;;;;3.83;0.80;;;15.30;99.90;;;;;;5101894;28;20201;-44
2021/10/11 11:50:21;;;;;;;3.17;0.70;;;15.30;99.90;;;;;;5097351;27;20189;-53
2021/10/11 11:52:52;;;;;;;2.03;0.53;;;15.30;99.90;;;;;;5089861;27;20224;-48
2021/10/11 11:55:20;;;;;;;2.27;0.73;;;15.30;99.90;;;;;;5100170;28;20201;-53
2021/10/11 11:57:48;;;;;;;3.67;0.70;;;15.40;99.90;;;;;;5094445;28;20290;-47
2021/10/11 12:00:16;;;;;;;2.90;1.00;;;15.40;99.90;;;;;;5095936;28;20239;-50
2021/10/11 12:02:46;;;;;;;3.00;0.70;;;15.50;99.90;;;;;;5089389;28;20952;-48
2021/10/11 12:05:13;;;;;;;2.10;0.50;;;15.60;99.90;;;;;;5103120;28;20214;-48
2021/10/11 12:07:42;;;;;;;4.20;1.27;;;15.70;99.90;;;;;;5091714;27;20197;-47
2021/10/11 12:10:13;;;;;;;1.90;0.60;;;15.70;99.90;;;;;;5090712;27;20259;-47
2021/10/11 12:12:40;;;;;;;2.70;0.77;;;15.90;99.90;;;;;;5097467;28;20976;-51
2021/10/11 12:15:18;;;;;;;4.40;1.00;;;16.10;99.90;;;;;;5102190;28;20208;-50
2021/10/11 12:17:45;;;;;;;6.20;0.97;;;16.10;99.90;;;;;;5099253;28;20208;-50
2021/10/11 12:20:12;;;;;;;2.27;0.80;;;15.70;99.90;;;;;;5104393;28;20200;-45
2021/10/11 12:22:38;;;;;;;3.70;1.00;;;15.30;99.90;;;;;;5088481;27;20217;-48
2021/10/11 12:25:08;;;;;;;7.13;1.20;;;14.80;99.90;;;;;;5103749;27;20206;-47
2021/10/11 12:27:35;;;;;;;3.00;1.13;;;14.50;99.90;;;;;;5091347;28;20200;-51
2021/10/11 12:30:07;;;;;;;3.73;0.80;;;14.30;99.90;;;;;;5097652;28;20205;-46
2021/10/11 12:32:36;;;;;;;6.33;0.93;;;14.20;99.90;;;;;;5094761;27;20185;-49
2021/10/11 12:35:05;;;;;;;2.83;0.60;;;14.20;99.90;;;;;;5103381;28;20220;-50
2021/10/11 12:37:38;;;;;;;4.73;1.30;;;14.20;99.90;;;;;;5095040;28;20905;-50
2021/10/11 12:40:06;;;;;;;3.90;0.80;;;14.20;99.90;;;;;;5095832;27;20201;-50